Time;durP1;ratioP1;P1;durP2;ratioP2;P2;SDS_P1;SDS_P2;PMS_P1;PMS_P2;Temp;Humidity;BMP_temperature;BMP_pressure;BME280_temperature;BME280_humidity;BME280_pressure;Samples;Min_cycle;Max_cycle;Signal;HPM_P1;HPM_P2
2022/09/22 00:01:38;;;;;;;5.57;4.35;;;;;;;9.08;94.53;100848.91;5101760;28;20028;-65
2022/09/22 00:04:07;;;;;;;5.72;4.68;;;;;;;9.03;95.09;100842.19;5101803;28;20439;-64
2022/09/22 00:06:56;;;;;;;5.30;4.13;;;;;;;9.08;94.80;100851.56;5101961;28;20030;-66
2022/09/22 00:09:21;;;;;;;7.22;4.93;;;;;;;8.98;95.01;100837.16;5099904;28;20024;-66
2022/09/22 00:11:49;;;;;;;5.07;4.03;;;;;;;9.08;94.99;100866.75;5101248;28;20419;-67
2022/09/22 00:14:19;;;;;;;7.35;5.20;;;;;;;9.05;95.80;100859.81;5102823;28;20051;-66
2022/09/22 00:16:59;;;;;;;8.48;4.57;;;;;;;9.06;95.42;100855.31;5102012;28;20110;-65
2022/09/22 00:19:31;;;;;;;6.63;4.53;;;;;;;9.02;95.53;100845.78;5101886;28;20619;-67
2022/09/22 00:21:57;;;;;;;5.95;4.57;;;;;;;8.91;95.76;100835.88;5101953;28;20032;-67
2022/09/22 00:24:24;;;;;;;4.90;4.03;;;;;;;8.87;95.54;100828.22;5102362;28;20027;-66
2022/09/22 00:26:55;;;;;;;7.68;4.68;;;;;;;8.96;94.87;100843.56;5102239;28;20077;-67
2022/09/22 00:29:21;;;;;;;6.75;4.63;;;;;;;8.95;94.78;100855.25;5103840;28;20035;-66
2022/09/22 00:31:47;;;;;;;6.97;4.97;;;;;;;8.89;95.12;100844.97;5108169;27;20019;-65
2022/09/22 00:34:15;;;;;;;8.80;5.28;;;;;;;8.84;95.86;100849.81;5107216;28;20046;-67
2022/09/22 00:36:41;;;;;;;8.70;5.28;;;;;;;8.82;96.11;100849.06;5104412;28;20035;-65
2022/09/22 00:39:07;;;;;;;6.65;5.10;;;;;;;8.89;96.21;100866.38;5104934;28;20383;-65
2022/09/22 00:41:36;;;;;;;10.30;6.20;;;;;;;8.86;95.31;100856.75;5105988;27;20026;-64
2022/09/22 00:44:20;;;;;;;10.90;5.13;;;;;;;8.83;95.10;100862.34;5104475;27;20116;-64
2022/09/22 00:47:13;;;;;;;6.18;4.95;;;;;;;8.82;94.57;100857.09;5105620;28;20524;-65
2022/09/22 00:49:48;;;;;;;6.78;5.28;;;;;;;8.76;94.14;100858.41;5105419;28;20130;-65
2022/09/22 00:52:15;;;;;;;;;;;;;;;8.70;93.92;100853.47;5105394;28;20035;-65
2022/09/22 00:54:41;;;;;;;6.63;4.70;;;;;;;8.67;94.22;100858.19;5106494;28;19963;-65
2022/09/22 00:57:12;;;;;;;6.80;4.18;;;;;;;8.62;93.60;100853.19;5106160;28;20749;-65
2022/09/22 00:59:40;;;;;;;5.47;4.18;;;;;;;8.58;93.87;100851.69;5105637;28;20522;-66
2022/09/22 01:02:05;;;;;;;5.65;4.57;;;;;;;8.55;94.54;100856.41;5105782;28;20816;-65
2022/09/22 01:04:31;;;;;;;6.95;5.20;;;;;;;8.48;94.36;100847.94;5106716;28;20137;-65
2022/09/22 01:06:58;;;;;;;7.47;4.28;;;;;;;8.42;94.70;100847.53;5104746;28;20031;-65
2022/09/22 01:09:25;;;;;;;7.18;4.28;;;;;;;8.32;95.33;100830.44;5106181;28;20027;-65
2022/09/22 01:11:50;;;;;;;5.63;4.57;;;;;;;8.48;95.41;100852.47;5105875;28;20467;-65
2022/09/22 01:14:51;;;;;;;7.70;5.22;;;;;;;8.54;95.80;100849.31;5106375;28;20023;-64
2022/09/22 01:17:20;;;;;;;8.07;5.20;;;;;;;8.49;96.89;100849.69;5105585;28;20766;-65
2022/09/22 01:20:11;;;;;;;6.30;5.15;;;;;;;8.49;97.65;100846.13;5109092;27;20091;-66
2022/09/22 01:23:00;;;;;;;7.80;5.57;;;;;;;8.51;98.03;100846.88;5105858;27;20058;-65
2022/09/22 01:25:31;;;;;;;5.82;4.80;;;;;;;8.52;98.59;100852.09;5105766;28;20046;-64
2022/09/22 01:28:18;;;;;;;9.80;5.43;;;;;;;8.55;98.83;100843.03;5103696;28;20019;-64
2022/09/22 01:30:56;;;;;;;9.05;5.60;;;;;;;8.52;98.08;100840.59;5108242;27;20040;-66
2022/09/22 01:33:40;;;;;;;9.05;5.72;;;;;;;8.60;97.75;100851.56;5102928;28;20125;-67
2022/09/22 01:36:14;;;;;;;6.05;4.93;;;;;;;8.60;97.55;100848.91;5103666;28;20544;-67
2022/09/22 01:38:43;;;;;;;;;;;;;;;8.59;97.70;100848.06;5102276;28;20543;-66
2022/09/22 01:41:20;;;;;;;8.43;5.50;;;;;;;8.62;98.19;100847.84;5103576;28;20375;-67
2022/09/22 01:43:50;;;;;;;6.82;5.60;;;;;;;8.61;98.26;100843.44;5105783;28;20114;-64
2022/09/22 01:46:29;;;;;;;8.55;5.30;;;;;;;8.57;98.78;100830.41;5101754;28;20051;-66
2022/09/22 01:48:59;;;;;;;6.80;5.53;;;;;;;8.67;98.49;100850.16;5105311;27;20035;-66
2022/09/22 01:51:30;;;;;;;7.80;4.97;;;;;;;8.70;99.09;100834.75;5103753;28;20471;-67
2022/09/22 01:54:03;;;;;;;7.78;5.85;;;;;;;8.68;99.00;100838.53;5103179;28;20352;-66
2022/09/22 01:56:31;;;;;;;8.43;5.65;;;;;;;8.74;99.55;100838.91;5104487;28;20782;-66
2022/09/22 01:59:01;;;;;;;7.20;5.50;;;;;;;8.74;99.76;100833.56;5106685;27;20027;-66
2022/09/22 02:01:59;;;;;;;7.63;5.90;;;;;;;8.78;99.49;100832.38;5102877;28;20015;-67
2022/09/22 02:04:34;;;;;;;7.75;6.00;;;;;;;8.73;99.68;100814.97;5103285;28;20024;-67
2022/09/22 02:07:14;;;;;;;8.73;6.10;;;;;;;8.80;99.41;100833.13;5101319;28;20551;-66
2022/09/22 02:09:41;;;;;;;7.75;5.85;;;;;;;8.82;99.84;100839.25;5103484;28;20118;-64
2022/09/22 02:12:06;;;;;;;10.48;6.00;;;;;;;8.81;99.99;100829.47;5104439;27;20023;-65
2022/09/22 02:14:32;;;;;;;12.85;6.10;;;;;;;8.84;100.00;100837.28;5107193;27;20046;-65
2022/09/22 02:16:59;;;;;;;8.63;6.55;;;;;;;8.86;100.00;100824.66;5104627;28;20033;-65
2022/09/22 02:19:35;;;;;;;6.78;5.60;;;;;;;8.90;99.33;100828.81;5104918;28;20100;-65
2022/09/22 02:22:00;;;;;;;8.05;6.53;;;;;;;8.91;99.39;100829.69;5106014;27;20038;-66
2022/09/22 02:24:45;;;;;;;8.27;6.18;;;;;;;8.86;99.57;100823.81;5104639;28;20031;-65
2022/09/22 02:27:24;;;;;;;10.10;6.82;;;;;;;8.93;99.09;100827.75;5104519;28;20042;-65
2022/09/22 02:30:08;;;;;;;9.13;6.43;;;;;;;8.96;98.85;100832.88;5104047;28;20114;-65
2022/09/22 02:32:37;;;;;;;9.38;6.45;;;;;;;8.91;98.76;100830.53;5104259;28;20027;-65
2022/09/22 02:35:04;;;;;;;8.02;6.55;;;;;;;8.92;99.13;100826.03;5102922;28;20036;-65
2022/09/22 02:37:38;;;;;;;8.13;6.03;;;;;;;8.95;98.63;100831.16;5104528;28;20088;-65
2022/09/22 02:40:12;;;;;;;11.35;7.25;;;;;;;9.01;98.77;100828.03;5107007;27;20051;-65
2022/09/22 02:42:46;;;;;;;10.02;6.72;;;;;;;8.98;99.04;100831.81;5104183;28;20110;-66
2022/09/22 02:45:20;;;;;;;11.73;6.68;;;;;;;8.96;99.41;100835.53;5104851;28;20042;-65
2022/09/22 02:48:02;;;;;;;9.88;6.63;;;;;;;8.94;100.00;100840.16;5104776;28;20043;-66
2022/09/22 02:50:29;;;;;;;9.02;6.55;;;;;;;8.95;100.00;100837.38;5103110;28;20038;-66
2022/09/22 02:53:09;;;;;;;8.35;6.35;;;;;;;8.83;100.00;100824.03;5104545;28;20378;-65
2022/09/22 02:55:35;;;;;;;10.45;5.90;;;;;;;8.96;100.00;100836.41;5104410;28;20077;-65
2022/09/22 02:58:00;;;;;;;9.05;6.78;;;;;;;8.98;100.00;100833.63;5104294;28;20039;-63
2022/09/22 03:00:26;;;;;;;11.93;7.65;;;;;;;8.93;100.00;100819.72;5104461;27;20122;-64
2022/09/22 03:02:51;;;;;;;10.15;6.75;;;;;;;9.03;99.51;100845.69;5103970;28;20039;-63
2022/09/22 03:05:17;;;;;;;8.52;6.32;;;;;;;8.98;99.01;100830.94;5101941;28;20044;-65
2022/09/22 03:07:42;;;;;;;12.52;6.82;;;;;;;8.93;98.48;100817.03;5096272;28;20040;-65
2022/09/22 03:10:09;;;;;;;8.00;5.85;;;;;;;9.03;98.35;100829.63;5105668;27;20134;-65
2022/09/22 03:12:34;;;;;;;9.85;6.80;;;;;;;9.02;98.38;100833.28;5098318;28;20031;-65
2022/09/22 03:15:00;;;;;;;8.48;6.43;;;;;;;9.01;98.20;100830.72;5102813;28;20036;-65
2022/09/22 03:17:25;;;;;;;9.50;6.38;;;;;;;9.00;98.55;100827.19;5104798;28;20227;-65
2022/09/22 03:19:51;;;;;;;9.32;5.82;;;;;;;8.91;98.76;100821.66;5105525;27;20084;-66
2022/09/22 03:22:16;;;;;;;10.00;6.80;;;;;;;8.97;98.74;100823.91;5105505;27;20064;-65
2022/09/22 03:24:42;;;;;;;7.55;5.82;;;;;;;8.96;98.89;100822.16;5102696;28;20058;-63
2022/09/22 03:27:07;;;;;;;9.10;6.20;;;;;;;8.95;99.29;100820.47;5104005;28;20463;-63
2022/09/22 03:29:33;;;;;;;7.68;5.97;;;;;;;8.91;99.25;100819.81;5105822;27;20027;-63
2022/09/22 03:31:58;;;;;;;8.88;6.25;;;;;;;8.87;99.18;100815.66;5103741;28;20016;-63
2022/09/22 03:34:23;;;;;;;9.80;6.13;;;;;;;8.95;99.38;100825.81;5104181;28;20035;-64
2022/09/22 03:36:49;;;;;;;8.23;6.55;;;;;;;8.91;99.76;100819.00;5103485;28;20028;-63
2022/09/22 03:39:15;;;;;;;9.57;7.07;;;;;;;8.91;99.70;100813.63;5103908;28;20023;-63
2022/09/22 03:41:40;;;;;;;8.90;6.07;;;;;;;8.94;99.78;100816.94;5102910;28;20037;-63
2022/09/22 03:44:06;;;;;;;9.75;6.22;;;;;;;8.95;100.00;100815.97;5103231;28;20035;-63
2022/09/22 03:46:33;;;;;;;9.00;6.78;;;;;;;8.97;99.57;100815.88;5102779;28;20043;-63
2022/09/22 03:48:58;;;;;;;8.57;6.18;;;;;;;9.01;99.66;100814.66;5103738;27;20035;-65
2022/09/22 03:51:24;;;;;;;8.25;6.43;;;;;;;8.98;100.00;100807.72;5103288;28;20020;-65
2022/09/22 03:53:49;;;;;;;9.18;6.95;;;;;;;9.05;99.81;100816.16;5103044;28;20706;-66
2022/09/22 03:56:15;;;;;;;8.68;5.72;;;;;;;9.07;99.94;100806.19;5103224;28;20312;-65
2022/09/22 03:58:41;;;;;;;9.60;7.30;;;;;;;9.04;100.00;100815.31;5103808;28;20027;-65
2022/09/22 04:01:08;;;;;;;9.05;6.68;;;;;;;9.08;100.00;100815.91;5104963;27;20035;-65
2022/09/22 04:03:33;;;;;;;9.63;6.47;;;;;;;9.08;100.00;100814.13;5102288;28;20028;-66
2022/09/22 04:05:59;;;;;;;8.70;6.28;;;;;;;9.11;100.00;100813.88;5102546;28;20080;-66
2022/09/22 04:08:25;;;;;;;7.50;5.68;;;;;;;9.12;100.00;100812.03;5103821;27;20038;-64
2022/09/22 04:10:51;;;;;;;7.38;6.25;;;;;;;9.11;99.67;100821.91;5099933;28;20032;-64
2022/09/22 04:13:16;;;;;;;8.70;6.72;;;;;;;9.11;99.22;100821.03;5102106;28;20035;-64
2022/09/22 04:15:45;;;;;;;10.30;7.20;;;;;;;9.00;99.06;100803.09;5103063;28;20106;-64
2022/09/22 04:18:13;;;;;;;10.10;6.85;;;;;;;9.00;98.92;100803.09;5101497;28;20601;-64
2022/09/22 04:20:40;;;;;;;9.75;6.88;;;;;;;9.06;99.56;100824.06;5103772;28;20562;-64
2022/09/22 04:23:05;;;;;;;8.82;6.88;;;;;;;9.03;99.21;100823.44;5101697;27;20083;-64
2022/09/22 04:25:31;;;;;;;11.02;6.63;;;;;;;8.98;99.15;100818.44;5100703;28;20407;-64
2022/09/22 04:27:57;;;;;;;8.98;6.90;;;;;;;8.87;99.56;100806.81;5101742;28;20036;-64
2022/09/22 04:30:22;;;;;;;11.25;6.80;;;;;;;8.79;99.88;100798.47;5102281;28;20036;-64
2022/09/22 04:32:48;;;;;;;9.63;6.30;;;;;;;8.83;99.52;100814.19;5100922;28;20030;-63
2022/09/22 04:35:13;;;;;;;8.18;6.30;;;;;;;8.82;99.21;100820.50;5102652;28;20020;-64
2022/09/22 04:37:39;;;;;;;10.43;6.93;;;;;;;8.77;98.86;100819.16;5101507;28;20054;-64
2022/09/22 04:40:04;;;;;;;9.15;6.82;;;;;;;8.74;98.81;100819.38;5101845;28;20099;-64
2022/09/22 04:42:30;;;;;;;9.10;6.72;;;;;;;8.70;98.86;100824.06;5101669;28;20072;-64
2022/09/22 04:45:00;;;;;;;10.07;6.78;;;;;;;8.67;99.33;100823.41;5101333;28;20077;-64
2022/09/22 04:47:27;;;;;;;8.65;5.95;;;;;;;8.65;98.68;100826.19;5101678;28;20035;-64
2022/09/22 04:49:53;;;;;;;9.52;6.80;;;;;;;8.65;99.15;100839.56;5100685;28;20059;-64
2022/09/22 04:52:18;;;;;;;11.68;7.18;;;;;;;8.63;99.30;100840.66;5101966;28;20766;-64
2022/09/22 04:54:44;;;;;;;8.73;6.35;;;;;;;8.62;99.58;100836.28;5102607;28;20115;-64
2022/09/22 04:57:09;;;;;;;9.63;7.10;;;;;;;8.64;99.49;100845.06;5101840;28;20063;-64
2022/09/22 04:59:35;;;;;;;9.15;7.10;;;;;;;8.59;99.56;100840.03;5102017;28;20023;-64
2022/09/22 05:02:00;;;;;;;15.68;6.80;;;;;;;8.60;99.80;100847.09;5101890;28;20051;-64
2022/09/22 05:04:25;;;;;;;9.43;6.50;;;;;;;8.60;99.10;100844.41;5102060;28;20028;-64
2022/09/22 05:06:51;;;;;;;13.48;7.25;;;;;;;8.59;98.68;100852.53;5101612;28;20208;-64
2022/09/22 05:09:16;;;;;;;10.15;7.20;;;;;;;8.59;99.32;100855.22;5102804;28;20069;-64
2022/09/22 05:11:43;;;;;;;11.48;6.78;;;;;;;8.60;100.00;100855.09;5102177;28;20140;-66
2022/09/22 05:14:08;;;;;;;11.50;7.15;;;;;;;8.65;100.00;100860.13;5102664;28;20027;-66
2022/09/22 05:16:34;;;;;;;13.45;7.80;;;;;;;8.68;100.00;100858.06;5105245;28;20026;-68
2022/09/22 05:18:59;;;;;;;15.73;8.82;;;;;;;8.72;99.70;100856.06;5106655;28;20056;-66
2022/09/22 05:21:25;;;;;;;13.40;8.40;;;;;;;8.77;98.84;100859.25;5106078;28;20031;-66
2022/09/22 05:23:51;;;;;;;12.95;7.97;;;;;;;8.67;99.56;100855.50;5106006;28;20822;-66
2022/09/22 05:26:16;;;;;;;12.70;8.77;;;;;;;8.73;99.81;100852.41;5104990;28;20047;-66
2022/09/22 05:28:42;;;;;;;15.40;8.60;;;;;;;8.77;100.00;100860.09;5105990;27;20024;-65
2022/09/22 05:31:07;;;;;;;13.23;8.20;;;;;;;8.73;100.00;100853.25;5108497;27;20027;-66
2022/09/22 05:33:33;;;;;;;12.95;7.60;;;;;;;8.77;100.00;100861.94;5105213;28;20020;-64
2022/09/22 05:35:58;;;;;;;13.90;7.78;;;;;;;8.78;100.00;100858.28;5103879;28;20028;-64
2022/09/22 05:38:23;;;;;;;11.38;7.47;;;;;;;8.79;100.00;100850.16;5105258;27;20480;-64
2022/09/22 05:40:49;;;;;;;12.43;7.50;;;;;;;8.86;100.00;100853.22;5104405;27;20030;-64
2022/09/22 05:43:14;;;;;;;12.50;7.82;;;;;;;8.90;100.00;100860.09;5107013;27;20031;-64
2022/09/22 05:45:45;;;;;;;12.70;7.10;;;;;;;8.98;100.00;100868.41;5105271;27;20027;-64
2022/09/22 05:48:10;;;;;;;14.35;7.13;;;;;;;9.09;100.00;100868.47;5105118;28;20034;-64
2022/09/22 05:50:36;;;;;;;14.82;7.25;;;;;;;9.14;100.00;100867.19;5104887;28;20755;-64
2022/09/22 05:53:06;;;;;;;14.95;8.13;;;;;;;9.15;100.00;100865.34;5104775;27;20035;-64
2022/09/22 05:55:33;;;;;;;13.45;8.63;;;;;;;9.17;100.00;100860.75;5105734;28;20027;-64
2022/09/22 05:57:59;;;;;;;11.00;7.15;;;;;;;9.09;100.00;100855.94;5103603;28;20638;-64
2022/09/22 06:00:26;;;;;;;10.80;6.70;;;;;;;9.12;100.00;100870.91;5104723;27;20440;-64
2022/09/22 06:02:51;;;;;;;10.80;6.85;;;;;;;9.09;100.00;100855.09;5107336;27;20038;-64
2022/09/22 06:05:17;;;;;;;9.02;6.90;;;;;;;9.13;100.00;100852.06;5105125;28;20015;-64
2022/09/22 06:07:42;;;;;;;7.55;6.05;;;;;;;9.18;100.00;100859.75;5103806;28;20024;-64
2022/09/22 06:10:11;;;;;;;8.85;6.40;;;;;;;9.17;100.00;100855.38;5104716;28;20043;-64
2022/09/22 06:12:38;;;;;;;11.80;6.63;;;;;;;9.33;100.00;100872.03;5098909;27;20031;-64
2022/09/22 06:15:05;;;;;;;10.55;6.88;;;;;;;9.36;99.91;100869.13;5103218;27;20383;-63
2022/09/22 06:17:30;;;;;;;9.70;7.57;;;;;;;9.41;99.64;100877.66;5100403;27;20059;-64
2022/09/22 06:19:57;;;;;;;11.50;7.78;;;;;;;9.44;100.00;100882.78;5103655;27;20068;-63
2022/09/22 06:22:23;;;;;;;15.65;8.20;;;;;;;9.39;100.00;100860.00;5106745;27;20077;-63
2022/09/22 06:24:49;;;;;;;11.57;7.53;;;;;;;9.44;99.90;100864.03;5107193;27;20481;-63
2022/09/22 06:27:14;;;;;;;10.73;8.35;;;;;;;9.49;100.00;100869.94;5108587;27;20042;-63
2022/09/22 06:29:41;;;;;;;12.35;8.93;;;;;;;9.53;100.00;100879.44;5107917;27;20823;-64
2022/09/22 06:32:07;;;;;;;10.40;7.57;;;;;;;9.56;100.00;100875.66;5110370;27;20031;-64
2022/09/22 06:34:36;;;;;;;12.10;7.43;;;;;;;9.63;100.00;100879.59;5111051;27;20015;-63
2022/09/22 06:37:06;;;;;;;10.25;7.13;;;;;;;9.68;100.00;100885.47;5105626;27;20027;-64
2022/09/22 06:39:31;;;;;;;10.05;7.35;;;;;;;9.67;100.00;100884.59;5105140;27;20030;-64
2022/09/22 06:41:59;;;;;;;11.63;8.50;;;;;;;9.74;100.00;100879.66;5105042;28;20035;-63
2022/09/22 06:44:26;;;;;;;15.13;9.10;;;;;;;9.72;100.00;100869.06;5105274;27;20628;-63
2022/09/22 06:46:51;;;;;;;11.35;8.27;;;;;;;9.91;100.00;100876.53;5103082;28;20474;-64
2022/09/22 06:49:16;;;;;;;12.75;9.00;;;;;;;10.05;100.00;100884.38;5106975;27;20032;-64
2022/09/22 06:51:42;;;;;;;15.32;9.30;;;;;;;10.22;100.00;100886.66;5103594;28;20061;-64
2022/09/22 06:54:08;;;;;;;13.40;10.13;;;;;;;10.27;100.00;100893.38;5102902;27;20035;-66
2022/09/22 06:56:36;;;;;;;16.02;11.38;;;;;;;10.36;100.00;100887.31;5103516;28;20020;-65
2022/09/22 06:59:04;;;;;;;16.48;12.00;;;;;;;10.43;100.00;100893.03;5104610;27;20134;-66
2022/09/22 07:01:30;;;;;;;15.20;10.60;;;;;;;10.51;100.00;100893.28;5104217;28;20161;-65
2022/09/22 07:03:55;;;;;;;16.83;10.50;;;;;;;10.54;100.00;100891.22;5104775;28;20546;-66
2022/09/22 07:06:21;;;;;;;12.15;8.35;;;;;;;10.63;100.00;100892.31;5104553;28;20034;-66
2022/09/22 07:08:47;;;;;;;22.77;9.80;;;;;;;10.98;99.92;100896.59;5098560;28;20054;-68
2022/09/22 07:11:16;;;;;;;18.70;11.25;;;;;;;10.86;100.00;100872.53;5101860;28;20030;-67
2022/09/22 07:13:43;;;;;;;14.15;10.40;;;;;;;10.75;100.00;100865.38;5102967;28;20057;-68
2022/09/22 07:16:16;;;;;;;13.90;10.00;;;;;;;10.83;100.00;100880.84;5104599;28;20487;-67
2022/09/22 07:18:57;;;;;;;13.53;9.37;;;;;;;10.82;100.00;100881.81;5104029;28;20390;-68
2022/09/22 07:21:31;;;;;;;10.95;7.90;;;;;;;10.81;100.00;100885.50;5104209;28;20027;-67
2022/09/22 07:23:57;;;;;;;12.75;9.43;;;;;;;10.81;100.00;100897.06;5104358;27;20087;-67
2022/09/22 07:26:31;;;;;;;12.85;9.38;;;;;;;10.85;100.00;100892.31;5104463;28;20132;-67
2022/09/22 07:29:03;;;;;;;11.95;9.35;;;;;;;10.79;100.00;100866.84;5102567;28;20081;-68
2022/09/22 07:31:30;;;;;;;18.35;9.32;;;;;;;10.90;100.00;100887.44;5104284;28;22144;-68
2022/09/22 07:33:59;;;;;;;13.95;8.90;;;;;;;10.94;100.00;100889.72;5094860;28;20643;-68
2022/09/22 07:36:25;;;;;;;14.20;8.98;;;;;;;11.04;100.00;100905.97;5093531;28;20046;-68
2022/09/22 07:38:53;;;;;;;14.00;8.90;;;;;;;10.99;100.00;100890.22;5100186;28;20256;-68
2022/09/22 07:41:26;;;;;;;14.13;9.52;;;;;;;11.13;100.00;100903.38;5106494;27;20031;-68
2022/09/22 07:45:11;;;;;;;12.27;9.67;;;;;;;11.16;100.00;100897.78;5102409;28;20114;-68
2022/09/22 07:46:42;;;;;;;12.68;9.63;;;;;;;11.29;100.00;100913.75;5099768;28;20035;-68
2022/09/22 07:49:07;;;;;;;13.82;10.63;;;;;;;11.35;100.00;100923.97;5103538;28;20409;-68
2022/09/22 07:51:33;;;;;;;13.40;9.57;;;;;;;11.41;100.00;100929.72;5101937;28;20085;-68
2022/09/22 07:54:03;;;;;;;14.15;8.95;;;;;;;11.43;100.00;100927.78;5098127;28;20043;-68
2022/09/22 07:56:29;;;;;;;11.43;8.25;;;;;;;11.47;100.00;100934.59;5105386;27;20028;-68
2022/09/22 07:58:55;;;;;;;12.18;9.00;;;;;;;11.52;100.00;100948.47;5098774;28;20034;-68
2022/09/22 08:01:22;;;;;;;12.68;8.32;;;;;;;11.48;100.00;100930.91;5104691;28;20031;-68
2022/09/22 08:03:49;;;;;;;12.00;8.27;;;;;;;11.50;100.00;100933.47;5103738;28;20028;-68
2022/09/22 08:06:17;;;;;;;13.20;8.27;;;;;;;11.50;100.00;100928.97;5104307;28;20080;-68
2022/09/22 08:08:51;;;;;;;11.77;8.23;;;;;;;11.63;100.00;100938.72;5103432;28;20028;-68
2022/09/22 08:11:18;;;;;;;11.90;8.00;;;;;;;11.68;100.00;100956.19;5101446;27;20024;-68
2022/09/22 08:13:53;;;;;;;12.02;8.43;;;;;;;11.72;100.00;100948.72;5101067;28;20031;-68
2022/09/22 08:16:21;;;;;;;10.65;8.43;;;;;;;11.71;100.00;100942.50;5103482;28;20055;-64
2022/09/22 08:18:53;;;;;;;10.95;7.47;;;;;;;11.76;100.00;100942.09;5103328;28;20027;-64
2022/09/22 08:21:18;;;;;;;12.00;7.40;;;;;;;11.81;100.00;100942.59;5103344;28;20035;-65
2022/09/22 08:23:44;;;;;;;9.93;8.27;;;;;;;11.87;100.00;100952.84;5103629;28;20039;-64
2022/09/22 08:26:10;;;;;;;13.50;9.82;;;;;;;12.02;100.00;100951.56;5102506;28;20062;-65
2022/09/22 08:28:35;;;;;;;20.88;11.15;;;;;;;11.88;100.00;100933.03;5103212;28;20067;-65
2022/09/22 08:31:02;;;;;;;17.60;9.95;;;;;;;11.74;100.00;100926.13;5103368;28;20028;-65
2022/09/22 08:33:30;;;;;;;24.25;15.70;;;;;;;11.82;100.00;100941.59;5103237;28;20080;-65
2022/09/22 08:36:02;;;;;;;15.23;10.68;;;;;;;11.77;100.00;100944.66;5103158;28;20928;-64
2022/09/22 08:38:27;;;;;;;18.02;10.93;;;;;;;11.78;100.00;100946.41;5103751;28;20023;-64
2022/09/22 08:41:16;;;;;;;15.60;10.15;;;;;;;11.75;100.00;100940.41;5102428;28;20475;-65
2022/09/22 08:43:54;;;;;;;16.25;10.20;;;;;;;11.76;100.00;100945.66;5103245;28;20107;-65
2022/09/22 08:46:23;;;;;;;15.63;10.75;;;;;;;11.76;100.00;100947.47;5103754;28;20390;-65
2022/09/22 08:51:51;;;;;;;14.60;9.93;;;;;;;11.79;100.00;100949.91;5106923;28;20046;-65
2022/09/22 08:54:30;;;;;;;14.05;10.77;;;;;;;11.82;100.00;100950.53;5101451;28;20023;-65
2022/09/22 08:57:04;;;;;;;15.65;12.07;;;;;;;11.81;100.00;100946.16;5103235;27;20035;-65
2022/09/22 08:59:44;;;;;;;16.52;11.30;;;;;;;11.84;100.00;100948.56;5105732;28;20080;-65
2022/09/22 09:02:40;;;;;;;15.73;10.68;;;;;;;11.89;100.00;100934.72;5105757;27;20027;-65
2022/09/22 09:05:30;;;;;;;11.18;8.57;;;;;;;11.87;100.00;100923.28;5105620;28;20081;-64
2022/09/22 09:08:08;;;;;;;12.95;9.05;;;;;;;11.98;100.00;100942.91;5105424;28;20167;-65
2022/09/22 09:10:48;;;;;;;10.90;7.95;;;;;;;12.01;100.00;100949.84;5101144;28;20023;-65
2022/09/22 09:13:41;;;;;;;12.20;7.80;;;;;;;12.07;100.00;100944.81;5106416;28;20015;-65
2022/09/22 09:16:34;;;;;;;11.25;8.73;;;;;;;12.11;100.00;100940.88;5103762;28;20059;-65
2022/09/22 09:19:10;;;;;;;10.00;8.10;;;;;;;12.18;100.00;100934.00;5105194;28;20482;-65
2022/09/22 09:21:38;;;;;;;11.68;8.52;;;;;;;12.25;100.00;100927.09;5106766;27;20543;-65
2022/09/22 09:24:10;;;;;;;8.82;7.75;;;;;;;12.29;100.00;100923.16;5106732;28;20223;-65
2022/09/22 09:26:37;;;;;;;10.18;8.00;;;;;;;12.36;100.00;100916.31;5106546;28;20190;-65
2022/09/22 09:29:12;;;;;;;9.88;8.05;;;;;;;12.41;100.00;100924.81;5106211;28;20023;-65
2022/09/22 09:31:42;;;;;;;11.75;8.43;;;;;;;12.47;100.00;100918.06;5105551;27;20503;-65
2022/09/22 09:34:16;;;;;;;10.38;8.73;;;;;;;12.52;100.00;100918.53;5106326;27;20035;-65
2022/09/22 09:36:45;;;;;;;11.70;8.68;;;;;;;12.58;100.00;100921.53;5105784;28;20054;-64
2022/09/22 09:39:24;;;;;;;10.52;8.82;;;;;;;12.61;100.00;100912.34;5105466;28;20104;-64
2022/09/22 09:41:50;;;;;;;14.23;9.30;;;;;;;12.74;100.00;100918.38;5107286;27;20482;-64
2022/09/22 09:44:31;;;;;;;11.32;8.40;;;;;;;12.80;100.00;100923.22;5105177;28;20026;-65
2022/09/22 09:47:26;;;;;;;11.93;10.00;;;;;;;12.89;100.00;100920.56;5105519;28;20038;-65
2022/09/22 09:49:53;;;;;;;12.60;8.43;;;;;;;12.99;100.00;100926.00;5105182;28;20070;-64
2022/09/22 09:52:19;;;;;;;8.90;7.32;;;;;;;13.08;100.00;100923.38;5106198;28;20490;-65
2022/09/22 09:54:46;;;;;;;8.27;6.03;;;;;;;13.12;100.00;100938.28;5104301;28;20050;-64
2022/09/22 09:57:18;;;;;;;10.43;5.80;;;;;;;13.19;100.00;100946.69;5106137;27;20038;-64
2022/09/22 10:03:02;;;;;;;7.40;6.15;;;;;;;13.27;100.00;100945.00;5104779;28;20035;-64
2022/09/22 10:05:29;;;;;;;9.80;7.90;;;;;;;13.33;100.00;100943.59;5104781;27;20019;-64
2022/09/22 10:08:12;;;;;;;10.32;7.30;;;;;;;13.34;100.00;100932.69;5105749;27;20023;-64
2022/09/22 10:10:40;;;;;;;8.23;6.97;;;;;;;13.32;100.00;100926.56;5105602;28;20035;-64
2022/09/22 10:13:05;;;;;;;9.52;7.65;;;;;;;13.42;100.00;100937.38;5105440;28;20390;-64
2022/09/22 10:15:39;;;;;;;9.25;7.38;;;;;;;13.49;100.00;100934.00;5106408;27;20032;-64
2022/09/22 10:18:22;;;;;;;10.55;7.72;;;;;;;13.60;100.00;100935.72;5103924;28;20617;-63
2022/09/22 10:21:06;;;;;;;;;;;;;;;13.67;100.00;100942.25;5105487;28;20073;-64
2022/09/22 10:23:32;;;;;;;10.63;6.82;;;;;;;13.73;100.00;100938.16;5105625;28;19915;-67
2022/09/22 10:26:29;;;;;;;7.70;6.30;;;;;;;13.82;99.79;100940.00;5104650;28;20028;-67
2022/09/22 10:29:17;;;;;;;7.25;5.90;;;;;;;13.91;99.00;100928.38;5105077;28;20051;-67
2022/09/22 10:32:12;;;;;;;6.43;5.70;;;;;;;13.97;96.88;100934.06;5104877;28;20034;-67
2022/09/22 10:34:49;;;;;;;8.07;5.43;;;;;;;14.01;95.66;100938.19;5092322;28;20046;-66
2022/09/22 10:37:19;;;;;;;6.32;5.13;;;;;;;14.02;94.38;100934.47;5104068;27;20077;-66
2022/09/22 10:39:50;;;;;;;6.60;4.53;;;;;;;14.08;92.74;100931.22;5103264;28;20234;-67
2022/09/22 10:42:24;;;;;;;4.78;4.30;;;;;;;14.04;91.96;100918.16;5103188;28;20706;-66
2022/09/22 10:44:51;;;;;;;6.53;5.50;;;;;;;14.15;91.20;100935.06;5103719;28;20058;-67
2022/09/22 10:47:31;;;;;;;6.45;4.90;;;;;;;14.18;90.20;100934.78;5104586;27;20020;-67
2022/09/22 10:50:30;;;;;;;7.18;5.10;;;;;;;14.24;89.67;100931.53;5104695;28;20046;-67
2022/09/22 10:52:55;;;;;;;5.65;4.68;;;;;;;14.29;89.48;100929.28;5102223;28;20059;-66
2022/09/22 10:55:36;;;;;;;4.95;4.15;;;;;;;14.36;87.55;100930.41;5103510;28;20059;-67
2022/09/22 10:58:07;;;;;;;5.68;4.63;;;;;;;14.41;86.45;100927.28;5104274;28;20030;-66
2022/09/22 11:00:38;;;;;;;4.35;3.80;;;;;;;14.47;86.06;100911.34;5104439;28;20020;-66
2022/09/22 11:03:35;;;;;;;4.50;4.03;;;;;;;14.52;85.76;100921.69;5102563;28;20020;-66
2022/09/22 11:12:39;;;;;;;4.13;3.65;;;;;;;14.62;82.28;100912.59;5104964;28;20039;-67
2022/09/22 11:15:22;;;;;;;4.72;3.83;;;;;;;14.66;81.79;100902.34;5102167;28;20027;-66
2022/09/22 11:18:12;;;;;;;3.67;3.38;;;;;;;14.66;81.23;100908.59;5105465;27;20023;-66
2022/09/22 11:20:41;;;;;;;4.13;3.20;;;;;;;14.73;81.83;100912.41;5103898;28;20042;-66
2022/09/22 11:23:12;;;;;;;5.07;3.45;;;;;;;14.78;82.53;100911.97;5104435;28;20039;-66
2022/09/22 11:25:56;;;;;;;4.13;3.50;;;;;;;14.79;83.09;100909.13;5102367;28;20119;-66
2022/09/22 11:28:42;;;;;;;4.07;3.30;;;;;;;14.76;83.56;100906.72;5102820;28;20536;-66
2022/09/22 11:31:19;;;;;;;3.70;3.25;;;;;;;14.76;83.00;100895.91;5104332;28;20627;-66
2022/09/22 11:34:17;;;;;;;5.15;3.20;;;;;;;14.77;81.26;100897.59;5103933;28;20487;-66
2022/09/22 11:36:46;;;;;;;4.28;3.28;;;;;;;14.79;81.72;100883.94;5104694;27;20023;-66
2022/09/22 11:39:52;;;;;;;3.70;3.05;;;;;;;14.83;82.17;100894.31;5104324;28;20027;-66
2022/09/22 11:42:46;;;;;;;5.18;2.65;;;;;;;14.85;80.11;100883.38;5103824;28;20096;-66
2022/09/22 11:45:34;;;;;;;3.35;2.80;;;;;;;14.92;78.96;100879.94;5104052;28;20854;-66
2022/09/22 11:48:25;;;;;;;3.13;2.47;;;;;;;15.04;79.02;100880.59;5103246;28;20031;-66
2022/09/22 11:51:07;;;;;;;2.50;2.30;;;;;;;15.06;77.96;100878.59;5101688;28;20027;-66
2022/09/22 11:54:29;;;;;;;2.97;2.67;;;;;;;15.13;78.78;100864.31;5100949;28;20063;-66